Time;durP1;ratioP1;P1;durP2;ratioP2;P2;SDS_P1;SDS_P2;PMS_P1;PMS_P2;Temp;Humidity;BMP_temperature;BMP_pressure;BME280_temperature;BME280_humidity;BME280_pressure;Samples;Min_cycle;Max_cycle;Signal;HPM_P1;HPM_P2
2022/03/09 00:00:25;;;;;;;0.10;0.10;;;2.40;80.00;;;;;;6275334;22;20004;-68
2022/03/09 00:02:50;;;;;;;1.23;1.08;;;2.40;80.00;;;;;;6285246;22;20004;-68
2022/03/09 00:05:16;;;;;;;0.10;0.10;;;2.50;80.50;;;;;;6285178;22;20330;-69
2022/03/09 00:07:42;;;;;;;0.10;0.10;;;2.60;79.10;;;;;;6285136;22;20039;-68
2022/03/09 00:10:08;;;;;;;0.10;0.10;;;2.70;78.70;;;;;;6285460;22;20004;-68
2022/03/09 00:12:34;;;;;;;2.17;0.85;;;2.70;78.10;;;;;;6285134;22;20012;-68
2022/03/09 00:15:01;;;;;;;0.08;0.08;;;2.70;78.10;;;;;;6275406;22;20057;-68
2022/03/09 00:17:26;;;;;;;0.10;0.10;;;2.70;78.90;;;;;;6285078;22;20443;-68
2022/03/09 00:19:52;;;;;;;0.10;0.10;;;2.80;78.60;;;;;;6275315;22;20027;-69
2022/03/09 00:22:18;;;;;;;0.50;0.50;;;2.80;78.10;;;;;;6274790;22;20042;-69
2022/03/09 00:24:44;;;;;;;0.20;0.20;;;2.80;77.60;;;;;;6275432;22;20049;-69
2022/03/09 00:27:10;;;;;;;1.08;1.00;;;2.80;77.50;;;;;;6275411;22;20388;-69
2022/03/09 00:29:35;;;;;;;1.17;1.08;;;2.80;77.30;;;;;;6285125;22;20095;-69
2022/03/09 00:32:02;;;;;;;1.58;1.48;;;2.80;78.10;;;;;;6285258;22;20050;-69
2022/03/09 00:34:27;;;;;;;1.75;1.65;;;2.90;77.70;;;;;;6285084;22;20007;-69
2022/03/09 00:36:53;;;;;;;0.70;0.52;;;2.70;79.90;;;;;;6274922;22;20052;-68
2022/03/09 00:39:19;;;;;;;1.40;1.30;;;2.70;81.70;;;;;;6275113;22;20012;-70
2022/03/09 00:41:45;;;;;;;0.10;0.10;;;2.60;80.60;;;;;;6285265;22;20011;-69
2022/03/09 00:44:11;;;;;;;0.10;0.10;;;2.60;78.70;;;;;;6275118;22;20083;-69
2022/03/09 00:46:36;;;;;;;0.30;0.30;;;2.60;79.00;;;;;;6284901;22;20498;-69
2022/03/09 00:49:03;;;;;;;0.00;0.00;;;2.60;79.00;;;;;;6275368;22;20090;-69
2022/03/09 00:51:29;;;;;;;0.10;0.10;;;2.60;78.80;;;;;;6284977;22;20015;-69
2022/03/09 00:53:54;;;;;;;1.65;1.55;;;2.70;78.30;;;;;;6284861;22;20306;-69
2022/03/09 00:56:20;;;;;;;0.00;0.00;;;2.80;77.90;;;;;;6284948;22;20007;-69
2022/03/09 00:58:47;;;;;;;0.10;0.10;;;2.80;77.80;;;;;;6274971;22;20012;-68
2022/03/09 01:01:13;;;;;;;0.50;0.50;;;2.80;78.70;;;;;;6275221;22;20007;-68
2022/03/09 01:03:40;;;;;;;1.00;1.00;;;2.80;79.00;;;;;;6283450;22;20016;-68
2022/03/09 01:06:06;;;;;;;1.15;1.05;;;2.80;78.70;;;;;;6275145;22;20375;-69
2022/03/09 01:08:32;;;;;;;1.88;1.75;;;2.80;78.80;;;;;;6284668;22;20000;-69
2022/03/09 01:10:58;;;;;;;0.10;0.10;;;2.80;79.00;;;;;;6285523;22;20014;-69
2022/03/09 01:13:24;;;;;;;0.63;0.45;;;2.60;79.70;;;;;;6284838;22;20012;-69
2022/03/09 01:15:50;;;;;;;0.10;0.10;;;2.40;81.70;;;;;;6275112;22;20486;-69
2022/03/09 01:18:16;;;;;;;0.95;0.93;;;2.20;83.10;;;;;;6274581;22;20487;-69
2022/03/09 01:20:42;;;;;;;0.45;0.45;;;2.30;82.00;;;;;;6274846;22;20004;-69
2022/03/09 01:23:08;;;;;;;3.00;1.85;;;2.30;80.70;;;;;;6273282;22;20010;-69
2022/03/09 01:25:34;;;;;;;0.10;0.10;;;2.30;80.30;;;;;;6283453;22;20008;-69
2022/03/09 01:28:00;;;;;;;1.40;1.30;;;2.40;80.30;;;;;;6285113;22;20004;-69
2022/03/09 01:30:26;;;;;;;0.10;0.10;;;2.30;81.90;;;;;;6274714;22;20019;-69
2022/03/09 01:32:52;;;;;;;0.25;0.25;;;2.20;81.40;;;;;;6275714;22;20082;-69
2022/03/09 01:35:18;;;;;;;3.10;2.83;;;2.10;83.20;;;;;;6286846;22;20080;-69
2022/03/09 01:37:46;;;;;;;0.00;0.00;;;1.80;84.20;;;;;;6276677;22;20027;-68
2022/03/09 01:40:12;;;;;;;0.05;0.05;;;1.60;85.90;;;;;;6286974;22;20004;-69
2022/03/09 01:42:39;;;;;;;0.57;0.57;;;1.60;84.50;;;;;;6285206;22;20040;-69
2022/03/09 01:45:08;;;;;;;0.30;0.30;;;1.70;83.60;;;;;;6285399;22;20424;-69
2022/03/09 01:47:34;;;;;;;0.10;0.10;;;1.70;83.90;;;;;;6286703;22;20034;-69
2022/03/09 01:50:01;;;;;;;0.10;0.10;;;1.60;84.90;;;;;;6276931;22;20000;-69
2022/03/09 01:52:27;;;;;;;1.00;1.00;;;1.60;85.40;;;;;;6286437;22;20434;-69
2022/03/09 01:54:53;;;;;;;0.10;0.10;;;1.50;86.20;;;;;;6275099;22;20037;-68
2022/03/09 01:57:20;;;;;;;0.00;0.00;;;1.40;86.00;;;;;;6286628;22;20012;-69
2022/03/09 01:59:51;;;;;;;0.22;0.22;;;1.30;86.90;;;;;;6286832;22;20012;-69
2022/03/09 02:02:18;;;;;;;0.10;0.10;;;1.30;86.20;;;;;;6286857;22;20008;-68
2022/03/09 02:04:45;;;;;;;0.10;0.10;;;1.40;86.10;;;;;;6286557;22;20007;-68
2022/03/09 02:07:11;;;;;;;0.03;0.03;;;1.30;86.80;;;;;;6286627;22;20054;-68
2022/03/09 02:09:41;;;;;;;4.40;3.20;;;1.60;84.50;;;;;;6276548;22;20092;-68
2022/03/09 02:12:13;;;;;;;0.20;0.20;;;1.80;83.30;;;;;;6284980;22;20004;-67
2022/03/09 02:14:45;;;;;;;0.00;0.00;;;1.90;83.50;;;;;;6286403;22;20344;-68
2022/03/09 02:17:20;;;;;;;2.03;0.75;;;1.90;83.20;;;;;;6286343;22;20429;-68
2022/03/09 02:19:49;;;;;;;0.10;0.10;;;2.00;82.70;;;;;;6286415;22;20007;-68
2022/03/09 02:22:37;;;;;;;0.82;0.82;;;2.00;82.50;;;;;;6286366;22;20000;-68
2022/03/09 02:25:11;;;;;;;0.70;0.57;;;2.00;82.70;;;;;;6284721;22;20328;-67
2022/03/09 02:27:39;;;;;;;0.22;0.22;;;1.60;85.40;;;;;;6286002;22;20004;-67
2022/03/09 02:30:07;;;;;;;1.55;1.33;;;1.40;86.30;;;;;;6276443;22;20007;-68
2022/03/09 02:32:38;;;;;;;2.05;1.95;;;1.40;86.60;;;;;;6275807;22;20023;-68
2022/03/09 02:35:05;;;;;;;0.10;0.10;;;1.30;86.60;;;;;;6276376;22;20049;-68
2022/03/09 02:37:30;;;;;;;0.20;0.20;;;1.20;87.00;;;;;;6275749;22;20003;-68
2022/03/09 02:39:56;;;;;;;0.10;0.10;;;1.10;87.10;;;;;;6286123;22;20008;-68
2022/03/09 02:42:22;;;;;;;0.10;0.10;;;1.10;87.30;;;;;;6285971;22;20006;-68
2022/03/09 02:44:47;;;;;;;1.23;1.17;;;1.10;87.00;;;;;;6285719;22;20012;-67
2022/03/09 02:47:13;;;;;;;0.10;0.10;;;1.20;86.60;;;;;;6275900;22;20514;-67
2022/03/09 02:49:39;;;;;;;0.10;0.10;;;1.20;86.30;;;;;;6285684;22;20033;-69
2022/03/09 02:52:05;;;;;;;0.57;0.57;;;1.30;86.30;;;;;;6275773;22;20042;-68
2022/03/09 02:54:31;;;;;;;2.15;2.05;;;1.30;86.30;;;;;;6275839;22;20011;-67
2022/03/09 02:56:57;;;;;;;1.20;1.00;;;1.30;87.10;;;;;;6285854;22;20010;-68
2022/03/09 02:59:23;;;;;;;0.25;0.25;;;1.20;87.60;;;;;;6285678;22;20058;-68
2022/03/09 03:01:48;;;;;;;0.17;0.17;;;1.10;87.50;;;;;;6285555;22;20000;-68
2022/03/09 03:04:14;;;;;;;0.28;0.28;;;0.90;87.20;;;;;;6275745;22;20058;-68
2022/03/09 03:06:40;;;;;;;0.10;0.10;;;0.90;87.40;;;;;;6275761;22;20000;-68
2022/03/09 03:09:06;;;;;;;0.20;0.20;;;0.90;87.80;;;;;;6285713;22;20012;-68
2022/03/09 03:11:31;;;;;;;1.42;1.33;;;0.90;87.90;;;;;;6285547;22;20010;-68
2022/03/09 03:13:57;;;;;;;0.20;0.20;;;0.90;88.10;;;;;;6275667;22;20017;-68
2022/03/09 03:16:25;;;;;;;5.72;1.30;;;0.80;88.40;;;;;;6275635;22;20451;-68
2022/03/09 03:18:51;;;;;;;0.20;0.20;;;0.80;88.60;;;;;;6285433;22;20042;-68
2022/03/09 03:21:17;;;;;;;0.10;0.10;;;0.80;88.90;;;;;;6273835;22;20004;-68
2022/03/09 03:23:42;;;;;;;0.63;0.57;;;0.80;89.70;;;;;;6285480;22;20333;-68
2022/03/09 03:26:08;;;;;;;0.10;0.10;;;0.70;90.10;;;;;;6285678;22;20345;-68
2022/03/09 03:28:34;;;;;;;0.40;0.40;;;0.80;90.30;;;;;;6285347;22;20455;-68
2022/03/09 03:31:00;;;;;;;0.57;0.57;;;0.80;90.40;;;;;;6275759;22;19999;-69
2022/03/09 03:33:26;;;;;;;0.17;0.17;;;0.80;90.50;;;;;;6275507;22;20022;-69
2022/03/09 03:35:52;;;;;;;1.17;1.10;;;0.80;90.70;;;;;;6285491;22;20094;-69
2022/03/09 03:38:18;;;;;;;1.48;1.38;;;0.80;90.70;;;;;;6283530;22;20384;-69
2022/03/09 03:40:45;;;;;;;0.00;0.00;;;0.70;90.90;;;;;;6275393;22;20018;-69
2022/03/09 03:43:11;;;;;;;1.13;1.02;;;0.70;91.10;;;;;;6285553;22;20011;-69
2022/03/09 03:45:37;;;;;;;2.30;1.38;;;0.70;91.40;;;;;;6275226;22;20003;-68
2022/03/09 03:48:03;;;;;;;0.35;0.35;;;0.70;91.30;;;;;;6285112;22;20012;-68
2022/03/09 03:50:29;;;;;;;0.20;0.20;;;0.70;91.40;;;;;;6275292;22;20008;-68
2022/03/09 03:52:55;;;;;;;1.38;0.77;;;0.70;91.60;;;;;;6274834;22;20018;-68
2022/03/09 03:55:21;;;;;;;0.55;0.55;;;0.70;91.70;;;;;;6274866;22;20339;-68
2022/03/09 03:57:47;;;;;;;2.47;2.28;;;0.70;91.90;;;;;;6285014;22;20336;-68
2022/03/09 04:00:13;;;;;;;0.28;0.28;;;0.70;92.00;;;;;;6284998;22;20098;-68
2022/03/09 04:02:39;;;;;;;0.65;0.63;;;0.70;92.10;;;;;;6285179;22;19999;-68
2022/03/09 04:05:06;;;;;;;0.95;0.95;;;0.70;92.50;;;;;;6285183;22;20332;-68
2022/03/09 04:07:32;;;;;;;0.10;0.10;;;0.60;92.30;;;;;;6285098;22;20019;-69
2022/03/09 04:09:58;;;;;;;1.27;1.17;;;0.60;92.60;;;;;;6283591;22;20000;-69
2022/03/09 04:12:24;;;;;;;0.10;0.10;;;0.60;92.70;;;;;;6275304;22;20018;-68
2022/03/09 04:14:52;;;;;;;0.77;0.30;;;0.60;92.90;;;;;;6274991;22;19999;-68
2022/03/09 04:17:17;;;;;;;1.10;0.93;;;0.60;93.10;;;;;;6285013;22;20000;-68
2022/03/09 04:19:43;;;;;;;1.65;1.55;;;0.50;93.20;;;;;;6275022;22;20102;-69
2022/03/09 04:22:09;;;;;;;0.52;0.52;;;0.40;93.50;;;;;;6273719;22;20010;-68
2022/03/09 04:24:35;;;;;;;0.88;0.80;;;0.50;93.60;;;;;;6274711;22;20452;-69
2022/03/09 04:27:01;;;;;;;0.50;0.50;;;0.40;93.70;;;;;;6275213;22;20074;-69
2022/03/09 04:29:26;;;;;;;0.10;0.10;;;0.30;94.30;;;;;;6274405;22;20012;-69
2022/03/09 04:31:52;;;;;;;1.48;1.40;;;0.30;94.60;;;;;;6285098;22;20012;-69
2022/03/09 04:34:18;;;;;;;0.10;0.10;;;0.30;94.80;;;;;;6284946;22;20004;-67
2022/03/09 04:36:43;;;;;;;0.20;0.20;;;0.30;94.90;;;;;;6282272;22;20318;-68
2022/03/09 04:39:09;;;;;;;0.57;0.57;;;0.30;95.20;;;;;;6285000;22;20041;-68
2022/03/09 04:41:35;;;;;;;0.20;0.20;;;0.30;95.30;;;;;;6274510;22;20329;-68
2022/03/09 04:44:01;;;;;;;0.85;0.85;;;0.20;95.90;;;;;;6275043;22;20010;-68
2022/03/09 04:46:27;;;;;;;3.92;1.05;;;0.10;96.30;;;;;;6284686;22;20014;-68
2022/03/09 04:48:53;;;;;;;0.10;0.10;;;0.10;96.80;;;;;;6274632;22;20012;-69
2022/03/09 04:51:21;;;;;;;0.00;0.00;;;0.00;97.30;;;;;;6284607;22;20026;-68
2022/03/09 04:53:47;;;;;;;0.30;0.30;;;-0.10;97.70;;;;;;6284384;22;20004;-68
2022/03/09 04:56:14;;;;;;;0.45;0.32;;;-0.10;98.00;;;;;;6274859;22;20016;-68
2022/03/09 04:58:40;;;;;;;0.10;0.10;;;-0.20;98.40;;;;;;6284565;22;20011;-69
2022/03/09 05:01:06;;;;;;;3.70;0.82;;;-0.20;98.70;;;;;;6284849;22;20016;-68
2022/03/09 05:03:34;;;;;;;0.55;0.55;;;-0.30;98.90;;;;;;6284303;22;20459;-67
2022/03/09 05:06:01;;;;;;;0.20;0.20;;;-0.30;99.10;;;;;;6273511;22;20011;-71
2022/03/09 05:08:27;;;;;;;0.20;0.20;;;-0.30;99.20;;;;;;6286550;22;20109;-73
2022/03/09 05:10:53;;;;;;;0.10;0.10;;;-0.40;99.30;;;;;;6276860;22;20039;-74
2022/03/09 05:13:20;;;;;;;1.55;1.45;;;-0.40;99.70;;;;;;6286650;22;20039;-73
2022/03/09 05:15:47;;;;;;;0.55;0.55;;;-0.40;99.80;;;;;;6286586;22;20022;-70
2022/03/09 05:18:13;;;;;;;0.10;0.10;;;-0.50;99.80;;;;;;6276742;22;20142;-70
2022/03/09 05:20:39;;;;;;;0.10;0.10;;;-0.40;99.50;;;;;;6286630;22;20003;-70
2022/03/09 05:23:04;;;;;;;0.10;0.10;;;-0.50;99.70;;;;;;6276597;22;20003;-73
2022/03/09 05:25:30;;;;;;;0.80;0.80;;;-0.40;99.90;;;;;;6286611;22;20000;-75
2022/03/09 05:27:56;;;;;;;2.47;2.28;;;-0.20;99.90;;;;;;6285098;22;20007;-76
2022/03/09 05:30:22;;;;;;;0.10;0.10;;;-0.30;99.90;;;;;;6286777;22;20010;-67
2022/03/09 05:32:48;;;;;;;0.10;0.10;;;-0.50;99.90;;;;;;6286455;22;20039;-69
2022/03/09 05:35:13;;;;;;;0.10;0.10;;;-0.60;99.90;;;;;;6276514;22;19995;-72
2022/03/09 05:37:43;;;;;;;2.80;1.02;;;-0.60;99.90;;;;;;6276177;22;20012;-70
2022/03/09 05:40:10;;;;;;;1.65;1.58;;;-0.70;99.90;;;;;;6276658;22;20003;-72
2022/03/09 05:42:37;;;;;;;13.48;7.03;;;-0.70;99.90;;;;;;6286187;22;20023;-75
2022/03/09 05:45:04;;;;;;;4.38;3.20;;;-1.00;99.90;;;;;;6276256;22;20478;-75
2022/03/09 05:47:31;;;;;;;0.88;0.88;;;-1.20;99.90;;;;;;6276243;22;19999;-75
2022/03/09 05:49:57;;;;;;;1.92;1.77;;;-1.10;99.90;;;;;;6285958;22;20027;-74
2022/03/09 05:52:23;;;;;;;1.00;1.00;;;-1.10;99.90;;;;;;6284778;22;20099;-70
2022/03/09 05:54:49;;;;;;;0.30;0.30;;;-1.10;99.90;;;;;;6248973;22;19999;-70
2022/03/09 05:57:20;;;;;;;0.20;0.20;;;-1.20;99.90;;;;;;6274908;22;20328;-69
2022/03/09 05:59:46;;;;;;;0.10;0.10;;;-1.10;99.90;;;;;;6276234;22;20038;-69
2022/03/09 06:02:12;;;;;;;0.10;0.10;;;-1.00;99.90;;;;;;6286299;22;20031;-69
2022/03/09 06:04:38;;;;;;;0.10;0.10;;;-1.10;99.90;;;;;;6285871;22;20428;-70
2022/03/09 06:07:05;;;;;;;0.10;0.10;;;-1.20;99.90;;;;;;6286246;22;20010;-69
2022/03/09 06:09:30;;;;;;;1.38;1.08;;;-1.10;99.90;;;;;;6275998;22;20012;-69
2022/03/09 06:11:56;;;;;;;1.80;1.70;;;-1.00;99.90;;;;;;6276083;22;20010;-69
2022/03/09 06:14:22;;;;;;;2.63;2.15;;;-1.00;99.90;;;;;;6276187;22;20035;-69
2022/03/09 06:16:48;;;;;;;0.17;0.17;;;-1.00;99.90;;;;;;6285666;22;20050;-68
2022/03/09 06:19:15;;;;;;;0.10;0.10;;;-0.90;99.90;;;;;;6275477;22;20015;-70
2022/03/09 06:21:42;;;;;;;0.10;0.10;;;-0.80;99.90;;;;;;6285998;22;20720;-70
2022/03/09 06:24:08;;;;;;;0.10;0.10;;;-0.90;99.90;;;;;;6276162;22;20142;-70
2022/03/09 06:26:33;;;;;;;0.10;0.10;;;-0.90;99.90;;;;;;6275935;22;20529;-69
2022/03/09 06:28:59;;;;;;;0.10;0.10;;;-1.00;99.90;;;;;;6276005;22;20012;-69
2022/03/09 06:31:25;;;;;;;0.20;0.20;;;-1.00;99.90;;;;;;6285664;22;20360;-69
2022/03/09 06:33:51;;;;;;;0.65;0.65;;;-1.00;99.90;;;;;;6285822;22;20011;-69
2022/03/09 06:36:17;;;;;;;0.10;0.10;;;-1.00;99.90;;;;;;6285824;22;20340;-70
2022/03/09 06:38:43;;;;;;;0.98;0.95;;;-1.00;99.90;;;;;;6275650;22;20008;-70
2022/03/09 06:41:09;;;;;;;0.20;0.20;;;-0.90;99.90;;;;;;6286102;22;20007;-69
2022/03/09 06:43:35;;;;;;;1.45;0.95;;;-0.80;99.90;;;;;;6275647;22;20015;-69
2022/03/09 06:46:00;;;;;;;0.15;0.15;;;-0.80;99.90;;;;;;6285749;22;20008;-68
2022/03/09 06:48:26;;;;;;;0.10;0.10;;;-0.70;99.90;;;;;;6286002;22;20012;-68
2022/03/09 06:50:52;;;;;;;0.10;0.10;;;-0.60;99.90;;;;;;6285531;22;20792;-68
2022/03/09 06:53:20;;;;;;;0.10;0.10;;;-0.50;99.90;;;;;;6275880;22;20012;-68
2022/03/09 06:55:46;;;;;;;0.10;0.10;;;-0.40;99.90;;;;;;6275425;22;20078;-68
2022/03/09 06:58:12;;;;;;;1.33;1.23;;;-0.40;99.90;;;;;;6275710;22;20074;-68
2022/03/09 07:00:38;;;;;;;0.05;0.05;;;-0.30;99.90;;;;;;6285542;22;20075;-69
2022/03/09 07:03:05;;;;;;;0.63;0.63;;;-0.30;99.90;;;;;;6275884;22;20034;-69
2022/03/09 07:05:34;;;;;;;0.30;0.30;;;-0.20;99.90;;;;;;6275298;22;20007;-68
2022/03/09 07:08:00;;;;;;;0.40;0.40;;;-0.10;99.90;;;;;;6273303;22;20049;-68
2022/03/09 07:10:27;;;;;;;0.20;0.20;;;0.00;99.90;;;;;;6275587;22;20010;-68
2022/03/09 07:12:52;;;;;;;0.10;0.10;;;0.10;99.90;;;;;;6285454;22;20098;-68
2022/03/09 07:15:18;;;;;;;0.10;0.10;;;0.20;99.90;;;;;;6275517;22;20376;-68
2022/03/09 07:17:47;;;;;;;0.52;0.52;;;0.30;99.90;;;;;;6275507;22;20018;-68
2022/03/09 07:20:14;;;;;;;0.85;0.85;;;0.40;99.90;;;;;;6283868;22;20449;-68
2022/03/09 07:22:42;;;;;;;1.10;1.08;;;0.50;99.90;;;;;;6283858;22;20011;-68
2022/03/09 07:25:09;;;;;;;3.92;2.85;;;0.60;99.90;;;;;;6285376;22;20344;-69
2022/03/09 07:27:35;;;;;;;7.38;4.03;;;0.70;99.90;;;;;;6285354;22;20008;-67
2022/03/09 07:30:02;;;;;;;8.70;3.42;;;0.80;99.90;;;;;;6275252;22;20004;-68
2022/03/09 07:32:27;;;;;;;10.25;5.60;;;1.00;99.60;;;;;;6275494;22;20322;-67
2022/03/09 07:34:53;;;;;;;0.17;0.17;;;1.10;99.60;;;;;;6285410;22;20010;-68
2022/03/09 07:37:19;;;;;;;15.57;1.92;;;1.10;99.60;;;;;;6275291;22;20424;-68
2022/03/09 07:39:45;;;;;;;0.65;0.65;;;1.20;99.40;;;;;;6273764;22;20012;-67
2022/03/09 07:42:10;;;;;;;0.10;0.10;;;1.30;99.30;;;;;;6274392;22;20014;-68
2022/03/09 07:44:36;;;;;;;0.10;0.10;;;1.40;98.90;;;;;;6274036;22;20440;-68
2022/03/09 07:47:02;;;;;;;0.20;0.20;;;1.50;98.30;;;;;;6274451;22;20011;-68
2022/03/09 07:49:28;;;;;;;0.20;0.20;;;1.70;97.60;;;;;;6284136;22;20103;-69
2022/03/09 07:51:54;;;;;;;0.10;0.10;;;1.80;97.70;;;;;;6283844;22;20012;-68
2022/03/09 07:54:20;;;;;;;0.30;0.30;;;1.90;98.60;;;;;;6284125;22;20529;-69
2022/03/09 07:56:45;;;;;;;0.10;0.10;;;1.90;98.40;;;;;;6284020;22;20166;-69
2022/03/09 07:59:11;;;;;;;0.08;0.08;;;2.00;98.40;;;;;;6274435;22;20007;-69
2022/03/09 08:01:40;;;;;;;0.68;0.68;;;2.00;98.70;;;;;;6284726;22;19999;-68
2022/03/09 08:04:08;;;;;;;0.35;0.35;;;2.10;98.30;;;;;;6274995;22;20030;-69
2022/03/09 08:06:37;;;;;;;0.28;0.28;;;2.20;98.30;;;;;;6274928;22;20008;-69
2022/03/09 08:09:04;;;;;;;14.30;1.45;;;2.30;98.20;;;;;;6274976;22;20433;-68
2022/03/09 08:11:30;;;;;;;0.10;0.10;;;2.40;98.10;;;;;;6275127;22;20004;-68
2022/03/09 08:13:59;;;;;;;0.10;0.10;;;2.40;97.80;;;;;;6274800;22;20010;-69
2022/03/09 08:16:25;;;;;;;1.75;0.70;;;2.50;97.40;;;;;;6275107;22;20010;-68
2022/03/09 08:18:51;;;;;;;0.10;0.10;;;2.50;96.80;;;;;;6272793;22;20011;-68
2022/03/09 08:21:17;;;;;;;1.52;1.08;;;2.60;96.50;;;;;;6274589;22;20007;-68
2022/03/09 08:23:43;;;;;;;0.50;0.50;;;2.70;96.30;;;;;;6274708;22;20008;-68
2022/03/09 08:26:09;;;;;;;0.30;0.30;;;2.80;96.10;;;;;;6274788;22;20035;-69
2022/03/09 08:28:35;;;;;;;1.40;1.27;;;2.80;96.00;;;;;;6284888;22;20007;-68
2022/03/09 08:31:01;;;;;;;1.08;1.08;;;2.90;95.70;;;;;;6275004;22;20008;-67
2022/03/09 08:33:26;;;;;;;0.90;0.90;;;3.00;95.30;;;;;;6274749;22;20461;-67
2022/03/09 08:35:53;;;;;;;0.60;0.60;;;3.10;94.80;;;;;;6284681;22;20011;-68
2022/03/09 08:38:19;;;;;;;0.98;0.98;;;3.20;94.70;;;;;;6274513;22;20022;-67
2022/03/09 08:40:45;;;;;;;0.10;0.10;;;3.20;94.60;;;;;;6284893;22;20010;-67
2022/03/09 08:43:11;;;;;;;4.22;2.72;;;3.30;94.30;;;;;;6284594;22;20004;-67
2022/03/09 08:45:38;;;;;;;0.32;0.32;;;3.50;94.00;;;;;;6274669;22;20007;-67
2022/03/09 08:48:05;;;;;;;0.47;0.47;;;3.60;93.70;;;;;;6284944;22;20066;-68
2022/03/09 08:50:31;;;;;;;13.23;4.28;;;3.70;93.20;;;;;;6274891;22;20003;-68
2022/03/09 08:52:58;;;;;;;0.52;0.52;;;3.90;92.60;;;;;;6284755;22;20014;-68
2022/03/09 08:55:24;;;;;;;0.60;0.60;;;4.00;92.60;;;;;;6274927;22;20012;-74
2022/03/09 08:57:50;;;;;;;0.10;0.10;;;4.20;92.10;;;;;;6274730;22;20054;-68
2022/03/09 09:00:16;;;;;;;0.10;0.10;;;4.30;91.80;;;;;;6284654;22;20007;-68
2022/03/09 09:02:42;;;;;;;1.38;1.27;;;4.50;91.50;;;;;;6284729;22;20008;-68
2022/03/09 09:05:09;;;;;;;0.57;0.45;;;4.60;91.10;;;;;;6284722;22;20011;-67
2022/03/09 09:07:35;;;;;;;0.43;0.43;;;4.70;90.70;;;;;;6284433;22;20008;-68
2022/03/09 09:10:01;;;;;;;8.30;1.35;;;4.90;90.30;;;;;;6274555;22;20424;-68
2022/03/09 09:12:26;;;;;;;0.95;0.90;;;4.90;90.30;;;;;;6274585;22;20019;-68
2022/03/09 09:14:55;;;;;;;36.50;5.10;;;5.10;90.30;;;;;;6273581;22;20004;-68
2022/03/09 09:17:21;;;;;;;4.20;2.10;;;5.10;88.70;;;;;;6282937;22;20016;-68
2022/03/09 09:19:47;;;;;;;4.07;1.30;;;5.30;89.00;;;;;;6284111;22;20003;-68
2022/03/09 09:22:12;;;;;;;0.13;0.13;;;5.40;88.00;;;;;;6274542;22;20086;-68
2022/03/09 09:24:38;;;;;;;1.50;1.40;;;5.60;87.00;;;;;;6274627;22;20164;-68
2022/03/09 09:27:04;;;;;;;2.92;2.35;;;5.70;86.20;;;;;;6284787;22;20003;-68
2022/03/09 09:29:30;;;;;;;0.65;0.65;;;5.80;85.90;;;;;;6274520;22;20030;-68
2022/03/09 09:31:55;;;;;;;0.43;0.43;;;5.90;84.90;;;;;;6274701;22;20077;-68
2022/03/09 09:34:21;;;;;;;0.10;0.10;;;6.30;86.20;;;;;;6274550;22;20008;-69
2022/03/09 09:36:48;;;;;;;1.40;1.10;;;6.30;84.50;;;;;;6274391;22;20015;-68
2022/03/09 09:39:16;;;;;;;2.75;1.77;;;6.50;84.20;;;;;;6274689;22;20011;-68
2022/03/09 09:41:47;;;;;;;0.30;0.30;;;6.50;83.20;;;;;;6256575;22;20008;-68
2022/03/09 09:44:14;;;;;;;0.40;0.40;;;6.70;82.20;;;;;;6247873;22;20019;-68
2022/03/09 09:46:43;;;;;;;0.75;0.75;;;6.80;81.20;;;;;;6257605;22;20004;-68
2022/03/09 09:49:11;;;;;;;0.43;0.43;;;6.90;80.30;;;;;;6274519;22;20007;-69
2022/03/09 09:51:37;;;;;;;0.30;0.30;;;6.90;79.50;;;;;;6273994;22;20012;-68
2022/03/09 09:54:05;;;;;;;0.35;0.35;;;7.00;79.00;;;;;;6284922;22;20015;-67
2022/03/09 09:56:38;;;;;;;1.17;1.10;;;7.10;78.40;;;;;;6286457;22;20003;-68
2022/03/09 09:59:05;;;;;;;0.32;0.32;;;7.30;78.40;;;;;;6275237;22;20003;-68
2022/03/09 10:01:32;;;;;;;1.20;0.70;;;7.50;76.70;;;;;;6286458;22;20038;-67
2022/03/09 10:03:58;;;;;;;1.15;1.13;;;7.70;75.20;;;;;;6274726;22;20066;-67
2022/03/09 10:06:24;;;;;;;0.80;0.80;;;7.80;75.30;;;;;;6286290;22;20089;-67
2022/03/09 10:09:02;;;;;;;26.63;1.27;;;7.90;73.50;;;;;;6275872;22;20090;-67
2022/03/09 10:11:50;;;;;;;0.10;0.10;;;7.80;73.80;;;;;;6276395;22;20082;-68
2022/03/09 10:14:39;;;;;;;4.88;1.42;;;8.00;73.60;;;;;;6276371;22;20506;-68
2022/03/09 10:17:26;;;;;;;5.72;2.17;;;8.00;73.80;;;;;;6264251;22;20008;-69
2022/03/09 10:20:06;;;;;;;0.17;0.17;;;8.30;73.90;;;;;;6285930;22;20137;-69
2022/03/09 10:22:35;;;;;;;0.25;0.25;;;8.40;71.90;;;;;;6286336;22;20325;-69
2022/03/09 10:25:10;;;;;;;0.10;0.10;;;8.50;72.80;;;;;;6275968;22;20008;-67
2022/03/09 10:27:55;;;;;;;0.50;0.50;;;8.70;72.90;;;;;;6276163;22;20425;-68
2022/03/09 10:30:24;;;;;;;0.52;0.52;;;8.80;71.40;;;;;;6274509;22;20010;-67
2022/03/09 10:32:50;;;;;;;0.10;0.10;;;8.50;71.50;;;;;;6285943;22;20008;-67
2022/03/09 10:35:20;;;;;;;0.10;0.10;;;8.70;71.40;;;;;;6275962;22;20071;-67
2022/03/09 10:37:48;;;;;;;0.23;0.23;;;8.40;71.60;;;;;;6285592;22;20550;-67
2022/03/09 10:40:20;;;;;;;2.05;1.80;;;8.50;71.90;;;;;;6285778;22;20042;-67
2022/03/09 10:42:49;;;;;;;1.30;1.20;;;9.00;71.10;;;;;;6275665;22;20007;-67
2022/03/09 10:45:17;;;;;;;0.43;0.43;;;9.50;71.20;;;;;;6276003;22;20032;-67
2022/03/09 10:47:48;;;;;;;1.30;1.20;;;9.90;70.70;;;;;;6275853;22;20011;-67
2022/03/09 10:50:17;;;;;;;1.83;1.35;;;10.20;69.80;;;;;;6275725;22;20004;-67
2022/03/09 10:52:53;;;;;;;2.55;1.88;;;9.90;67.30;;;;;;6274981;22;20033;-67
2022/03/09 10:55:39;;;;;;;0.93;0.77;;;10.10;68.10;;;;;;6285659;22;20011;-67
2022/03/09 10:58:20;;;;;;;2.08;1.13;;;10.10;68.10;;;;;;6275695;22;20057;-68
2022/03/09 11:00:50;;;;;;;0.00;0.00;;;10.20;66.40;;;;;;6275524;22;20004;-68
2022/03/09 11:03:26;;;;;;;0.30;0.30;;;9.90;67.70;;;;;;6275594;22;20008;-68
2022/03/09 11:05:59;;;;;;;1.38;1.27;;;10.50;69.50;;;;;;6275348;22;20098;-67
2022/03/09 11:08:28;;;;;;;1.25;1.15;;;10.60;66.20;;;;;;6275959;22;20320;-69
2022/03/09 11:10:55;;;;;;;0.70;0.70;;;10.50;66.50;;;;;;6275332;22;20011;-68
2022/03/09 11:13:30;;;;;;;3.00;2.63;;;10.30;65.60;;;;;;6275754;22;20008;-68
2022/03/09 11:15:56;;;;;;;0.00;0.00;;;10.70;66.10;;;;;;6273841;22;20061;-68
2022/03/09 11:18:28;;;;;;;1.08;0.73;;;10.90;65.60;;;;;;6275723;22;20011;-68
2022/03/09 11:20:58;;;;;;;0.38;0.38;;;10.70;64.70;;;;;;6248797;22;20533;-68
2022/03/09 11:23:25;;;;;;;1.30;1.20;;;11.50;63.90;;;;;;6273866;22;20676;-69
2022/03/09 11:26:23;;;;;;;6.60;2.30;;;12.00;62.50;;;;;;6273712;22;20011;-69
2022/03/09 11:28:58;;;;;;;0.43;0.43;;;12.10;62.40;;;;;;6275554;22;20012;-69
2022/03/09 11:31:40;;;;;;;0.63;0.63;;;11.80;61.90;;;;;;6273803;22;20014;-69
2022/03/09 11:34:06;;;;;;;0.10;0.10;;;11.40;61.60;;;;;;6274165;22;20012;-69
2022/03/09 11:36:34;;;;;;;1.27;0.70;;;11.40;60.20;;;;;;6285263;22;20010;-73
2022/03/09 11:39:15;;;;;;;1.85;1.75;;;11.50;62.70;;;;;;6275265;22;20075;-69
2022/03/09 11:41:41;;;;;;;2.42;0.82;;;11.70;61.40;;;;;;6285471;22;20054;-74
2022/03/09 11:44:19;;;;;;;0.43;0.43;;;11.90;62.50;;;;;;6275473;22;20008;-83
2022/03/09 11:47:02;;;;;;;0.65;0.65;;;11.70;61.10;;;;;;6285345;22;20458;-71
2022/03/09 11:49:46;;;;;;;0.52;0.52;;;12.40;60.10;;;;;;6275328;22;20076;-82
2022/03/09 11:52:19;;;;;;;0.70;0.50;;;14.10;57.50;;;;;;6285013;22;20035;-75
2022/03/09 11:54:59;;;;;;;0.47;0.22;;;14.50;55.80;;;;;;6285856;22;20012;-82
2022/03/09 11:57:48;;;;;;;2.05;1.60;;;16.00;53.30;;;;;;6275610;22;20014;-76
2022/03/09 12:00:20;;;;;;;0.68;0.57;;;14.40;52.70;;;;;;6285541;22;20035;-73
2022/03/09 12:02:51;;;;;;;1.65;1.17;;;13.20;55.40;;;;;;6275034;22;20558;-68
2022/03/09 12:05:29;;;;;;;;;;;13.80;57.30;;;;;;6275548;22;20003;-67
2022/03/09 12:08:06;;;;;;;1.30;0.88;;;15.80;51.80;;;;;;6274756;22;19903;-71
2022/03/09 12:10:51;;;;;;;0.68;0.55;;;14.30;53.40;;;;;;6274808;22;20014;-70
2022/03/09 12:13:27;;;;;;;0.40;0.40;;;15.30;52.60;;;;;;6274792;22;20520;-71
2022/03/09 12:16:16;;;;;;;2.85;1.00;;;16.00;49.50;;;;;;6284738;22;20310;-71
2022/03/09 12:19:06;;;;;;;0.85;0.73;;;15.00;47.10;;;;;;6285066;22;20081;-70
2022/03/09 12:21:35;;;;;;;2.40;0.68;;;14.00;47.90;;;;;;6285014;22;20079;-70
2022/03/09 12:24:04;;;;;;;2.45;1.98;;;15.60;48.60;;;;;;6284779;22;20332;-70
2022/03/09 12:26:50;;;;;;;1.42;1.33;;;17.80;45.80;;;;;;6285029;22;20011;-70
2022/03/09 12:29:21;;;;;;;0.85;0.85;;;16.70;45.70;;;;;;6283147;22;20008;-71
2022/03/09 12:32:01;;;;;;;5.22;1.90;;;17.80;44.60;;;;;;6284537;22;20614;-74
2022/03/09 12:34:31;;;;;;;0.63;0.63;;;15.40;47.00;;;;;;6284922;22;20004;-70
2022/03/09 12:36:58;;;;;;;1.38;0.60;;;15.40;46.60;;;;;;6284505;22;20064;-70
2022/03/09 12:39:26;;;;;;;2.15;1.00;;;16.70;44.40;;;;;;6274553;22;20019;-70
2022/03/09 12:41:55;;;;;;;0.15;0.15;;;17.00;44.30;;;;;;6274779;22;20004;-70
2022/03/09 12:44:27;;;;;;;0.50;0.50;;;16.10;44.00;;;;;;6274704;22;20012;-69
2022/03/09 12:46:53;;;;;;;1.95;1.10;;;15.10;45.60;;;;;;6274372;22;20042;-69
2022/03/09 12:49:31;;;;;;;8.35;2.67;;;17.20;43.90;;;;;;6273115;22;20003;-69
2022/03/09 12:52:02;;;;;;;0.57;0.57;;;16.80;43.50;;;;;;6273812;22;20047;-70
2022/03/09 12:54:33;;;;;;;1.35;0.70;;;17.90;42.70;;;;;;6274887;22;20012;-71
2022/03/09 12:57:30;;;;;;;0.52;0.47;;;18.30;41.30;;;;;;6274275;22;20019;-71